Time;durP1;ratioP1;P1;durP2;ratioP2;P2;SDS_P1;SDS_P2;PMS_P1;PMS_P2;Temp;Humidity;BMP_temperature;BMP_pressure;BME280_temperature;BME280_humidity;BME280_pressure;Samples;Min_cycle;Max_cycle;Signal;HPM_P1;HPM_P2
2024/01/01 00:00:14;;;;;;;58.80;46.90;;;;;;;7.23;80.09;94863.81;5007300;28;20246;-88
2024/01/01 00:02:58;;;;;;;46.90;35.80;;;;;;;7.19;79.96;94856.63;5010990;28;20198;-88
2024/01/01 00:05:24;;;;;;;33.57;28.30;;;;;;;7.15;80.11;94857.94;5025673;28;20202;-88
2024/01/01 00:07:55;;;;;;;29.53;23.80;;;;;;;7.17;80.26;94859.38;4988558;28;20210;-88
2024/01/01 00:10:34;;;;;;;29.60;21.53;;;;;;;7.20;80.07;94856.47;4990199;28;20219;-88
2024/01/01 00:13:02;;;;;;;25.07;20.30;;;;;;;7.15;79.96;94856.19;4995972;28;20219;-87
2024/01/01 00:15:37;;;;;;;22.07;18.20;;;;;;;7.12;80.13;94859.09;4987901;28;20229;-88
2024/01/01 00:18:32;;;;;;;20.43;16.60;;;;;;;7.12;80.36;94845.53;5002800;28;20201;-88
2024/01/01 00:21:05;;;;;;;17.63;14.73;;;;;;;7.13;80.28;94852.19;5009898;28;20257;-88
2024/01/01 00:23:57;;;;;;;19.00;14.63;;;;;;;7.17;79.51;94848.31;4992285;28;20657;-88
2024/01/01 00:26:29;;;;;;;17.33;14.23;;;;;;;7.20;79.55;94843.66;4984273;28;20212;-88
2024/01/01 00:28:57;;;;;;;18.50;15.83;;;;;;;7.22;79.01;94833.25;4988426;28;20755;-88
2024/01/01 00:31:26;;;;;;;20.97;15.83;;;;;;;7.19;78.93;94824.16;5003188;28;20289;-88
2024/01/01 00:34:04;;;;;;;18.20;16.00;;;;;;;7.17;78.79;94815.06;5009564;28;20209;-87
2024/01/01 00:36:32;;;;;;;18.77;15.30;;;;;;;7.17;78.94;94818.41;5027296;28;20325;-88
2024/01/01 00:38:59;;;;;;;16.80;13.93;;;;;;;7.17;79.17;94835.53;5027551;28;20892;-88
2024/01/01 00:41:36;;;;;;;13.70;11.93;;;;;;;7.11;79.00;94829.38;4989789;28;20198;-87
2024/01/01 00:44:13;;;;;;;15.73;12.47;;;;;;;7.20;78.79;94824.94;4988192;28;20208;-88
2024/01/01 00:46:41;;;;;;;15.67;12.43;;;;;;;7.24;78.45;94816.75;4988094;28;20203;-87
2024/01/01 00:49:07;;;;;;;13.03;10.37;;;;;;;7.23;78.68;94819.47;5002062;28;20222;-88
2024/01/01 00:51:34;;;;;;;13.47;10.60;;;;;;;7.21;78.67;94822.22;5013377;28;20233;-88
2024/01/01 00:54:01;;;;;;;11.60;9.20;;;;;;;7.16;78.44;94826.25;4988360;28;20227;-87
2024/01/01 00:56:44;;;;;;;10.57;8.60;;;;;;;7.07;78.10;94815.31;4988114;28;20223;-88
2024/01/01 00:59:12;;;;;;;15.27;12.50;;;;;;;6.98;77.91;94795.88;5003968;28;20249;-87
2024/01/01 01:01:41;;;;;;;11.83;9.50;;;;;;;6.98;77.75;94800.97;4987878;28;20195;-87
2024/01/01 01:06:50;;;;;;;9.10;7.80;;;;;;;6.87;77.35;94775.84;5018671;28;20218;-88
2024/01/01 01:09:16;;;;;;;10.63;8.27;;;;;;;6.92;77.68;94791.47;5016986;28;20215;-87
2024/01/01 01:12:04;;;;;;;10.10;7.73;;;;;;;6.90;77.59;94793.41;5003499;28;20231;-87
2024/01/01 01:14:38;;;;;;;8.47;7.57;;;;;;;6.96;76.77;94786.78;4997011;28;20730;-88
2024/01/01 01:17:11;;;;;;;7.10;5.93;;;;;;;6.94;76.76;94774.16;5010798;28;20190;-87
2024/01/01 01:19:37;;;;;;;7.23;5.87;;;;;;;6.94;76.67;94780.06;5008233;28;20219;-88
2024/01/01 01:22:07;;;;;;;7.67;5.83;;;;;;;7.05;76.53;94767.81;4996217;28;20309;-88
2024/01/01 01:24:38;;;;;;;5.83;5.17;;;;;;;6.96;76.00;94766.31;5030505;28;20221;-88
2024/01/01 01:27:19;;;;;;;6.67;4.87;;;;;;;7.01;75.99;94775.06;5019276;28;20222;-88
2024/01/01 01:29:48;;;;;;;6.37;4.53;;;;;;;6.98;76.09;94774.59;5007656;28;20219;-88
2024/01/01 01:32:20;;;;;;;7.33;4.57;;;;;;;7.04;75.79;94774.72;4990611;28;20192;-87
2024/01/01 01:34:56;;;;;;;5.20;4.40;;;;;;;6.98;76.08;94772.84;4990304;28;20235;-88
2024/01/01 01:37:23;;;;;;;5.90;4.37;;;;;;;6.96;76.26;94781.66;4990506;28;20203;-88
2024/01/01 01:39:49;;;;;;;5.33;4.17;;;;;;;6.94;76.27;94790.28;5014924;28;20315;-88
2024/01/01 01:42:25;;;;;;;5.90;4.30;;;;;;;6.95;76.11;94796.22;4994646;28;20222;-88
2024/01/01 01:45:06;;;;;;;4.53;3.83;;;;;;;6.92;76.08;94787.16;5010333;28;20210;-88
2024/01/01 01:47:33;;;;;;;4.47;3.57;;;;;;;6.90;75.82;94776.28;5010522;28;20207;-88
2024/01/01 01:50:02;;;;;;;5.40;4.37;;;;;;;6.91;75.65;94772.75;5009712;28;20257;-88
2024/01/01 01:52:38;;;;;;;3.97;3.47;;;;;;;6.95;75.73;94783.41;5009745;28;20253;-88
2024/01/01 01:55:06;;;;;;;5.40;4.30;;;;;;;6.88;75.65;94785.09;5014222;28;20696;-88
2024/01/01 01:57:34;;;;;;;6.67;5.07;;;;;;;6.82;76.14;94784.00;5015931;28;20198;-88
2024/01/01 02:00:04;;;;;;;4.53;3.63;;;;;;;6.78;76.33;94784.53;5008084;28;20672;-87
2024/01/01 02:02:34;;;;;;;5.50;4.60;;;;;;;6.87;76.09;94784.31;5004566;28;20291;-88
2024/01/01 02:05:10;;;;;;;4.00;3.40;;;;;;;6.88;75.79;94779.97;4990049;28;20233;-88
2024/01/01 02:07:37;;;;;;;5.27;3.60;;;;;;;6.89;75.81;94772.13;4990738;28;20285;-87
2024/01/01 02:10:04;;;;;;;4.13;3.20;;;;;;;6.78;75.78;94764.06;4989817;28;20234;-87
2024/01/01 02:12:46;;;;;;;3.30;3.00;;;;;;;6.85;75.71;94775.22;5021419;28;20590;-87
2024/01/01 02:15:15;;;;;;;3.17;2.87;;;;;;;6.79;75.79;94771.56;5001845;28;20746;-87
2024/01/01 02:17:41;;;;;;;3.30;2.77;;;;;;;6.82;75.35;94763.56;5009820;28;20293;-87
2024/01/01 02:20:12;;;;;;;3.90;3.07;;;;;;;6.85;75.50;94759.84;5008857;28;20225;-89
2024/01/01 02:22:41;;;;;;;3.57;3.07;;;;;;;6.87;75.12;94760.47;5009549;28;20207;-87
2024/01/01 02:25:16;;;;;;;3.93;3.10;;;;;;;6.86;75.09;94752.00;5009367;28;20290;-88
2024/01/01 02:27:42;;;;;;;3.93;3.23;;;;;;;6.85;74.74;94736.81;5019710;28;20288;-88
2024/01/01 02:30:10;;;;;;;3.47;2.90;;;;;;;6.85;74.71;94737.63;5011328;28;20216;-88
2024/01/01 02:32:37;;;;;;;2.83;2.40;;;;;;;6.80;74.71;94726.31;4990043;28;20314;-87
2024/01/01 02:35:21;;;;;;;2.63;2.20;;;;;;;6.84;74.75;94733.47;4990112;28;20219;-88
2024/01/01 02:37:47;;;;;;;3.70;2.23;;;;;;;6.78;74.96;94726.50;4989862;28;20211;-88
2024/01/01 02:40:15;;;;;;;2.97;2.67;;;;;;;6.83;74.69;94725.97;4989050;28;20277;-88
2024/01/01 02:42:42;;;;;;;2.50;2.10;;;;;;;6.82;74.01;94716.72;4994483;28;20198;-88
2024/01/01 02:45:22;;;;;;;4.43;2.57;;;;;;;6.84;74.06;94705.34;5028788;28;20289;-88
2024/01/01 02:47:53;;;;;;;3.20;2.30;;;;;;;6.78;74.21;94695.00;5029398;28;20202;-88
2024/01/01 02:50:36;;;;;;;2.90;2.40;;;;;;;6.74;73.85;94694.53;5018079;28;20218;-88
2024/01/01 02:53:05;;;;;;;2.17;1.90;;;;;;;6.77;73.50;94670.38;5000953;28;20740;-88
2024/01/01 02:55:35;;;;;;;3.60;2.30;;;;;;;6.70;73.34;94666.97;4996979;28;20251;-88
2024/01/01 02:58:02;;;;;;;3.73;2.40;;;;;;;6.77;73.54;94675.50;5009346;28;20238;-88
2024/01/01 03:00:37;;;;;;;2.40;1.80;;;;;;;6.75;72.89;94654.41;5017984;28;20230;-87
2024/01/01 03:03:08;;;;;;;3.73;2.20;;;;;;;6.73;72.66;94638.47;4996772;28;20727;-88
2024/01/01 03:05:34;;;;;;;2.20;1.93;;;;;;;6.69;72.63;94643.13;5009403;28;20698;-87
2024/01/01 03:08:01;;;;;;;2.77;1.90;;;;;;;6.68;72.36;94627.97;5009091;28;20714;-88
2024/01/01 03:10:45;;;;;;;2.63;1.80;;;;;;;6.53;72.58;94633.06;5007375;28;20215;-88
2024/01/01 03:13:12;;;;;;;2.50;1.93;;;;;;;6.51;72.57;94640.91;5005321;28;20203;-88
2024/01/01 03:15:41;;;;;;;3.30;1.80;;;;;;;6.49;72.61;94636.94;5014445;28;20329;-87
2024/01/01 03:18:12;;;;;;;3.27;2.07;;;;;;;6.45;73.24;94651.84;5019963;28;20657;-87
2024/01/01 03:20:44;;;;;;;2.83;2.20;;;;;;;6.47;72.81;94655.00;5008298;28;20219;-87
2024/01/01 03:23:11;;;;;;;3.00;2.53;;;;;;;6.38;72.65;94630.47;5000256;28;20287;-88
2024/01/01 03:25:38;;;;;;;4.20;2.00;;;;;;;6.52;72.50;94631.50;4988494;28;20715;-88
2024/01/01 03:28:07;;;;;;;5.43;2.50;;;;;;;6.57;72.17;94616.38;4989168;28;20203;-89
2024/01/01 03:30:50;;;;;;;2.80;2.40;;;;;;;6.58;71.90;94598.31;4988617;28;20879;-88
2024/01/01 03:33:17;;;;;;;3.13;2.30;;;;;;;6.58;72.01;94600.09;5014964;28;20208;-88
2024/01/01 03:35:46;;;;;;;2.93;2.30;;;;;;;6.59;71.83;94602.47;5028390;28;20214;-87
2024/01/01 03:38:12;;;;;;;2.73;2.23;;;;;;;6.64;71.71;94604.50;5028447;28;20198;-88
2024/01/01 03:40:53;;;;;;;3.97;2.40;;;;;;;6.67;71.38;94593.13;5004404;28;20223;-89
2024/01/01 03:43:20;;;;;;;2.47;2.27;;;;;;;6.60;72.02;94590.47;4989382;28;20214;-88
2024/01/01 03:45:47;;;;;;;3.13;2.37;;;;;;;6.53;71.81;94587.06;4988047;28;20249;-88
2024/01/01 03:48:16;;;;;;;3.43;2.27;;;;;;;6.59;71.64;94594.00;5009537;28;20198;-89
2024/01/01 03:50:47;;;;;;;2.90;2.30;;;;;;;6.66;71.88;94594.91;5015563;28;20215;-89
2024/01/01 03:53:14;;;;;;;2.70;2.10;;;;;;;6.69;71.67;94586.06;5000266;28;20292;-88
2024/01/01 03:55:40;;;;;;;2.43;2.00;;;;;;;6.74;71.29;94573.53;4995982;28;20215;-88
2024/01/01 03:58:07;;;;;;;2.77;2.10;;;;;;;6.71;71.30;94574.69;5000799;28;20638;-89
2024/01/01 04:00:33;;;;;;;4.63;2.40;;;;;;;6.74;71.28;94571.75;4987960;28;20230;-89
2024/01/01 04:03:00;;;;;;;2.60;2.23;;;;;;;6.76;71.15;94566.47;4992642;28;20231;-88
2024/01/01 04:05:37;;;;;;;3.90;2.40;;;;;;;6.69;70.86;94556.19;5020919;28;20197;-88
2024/01/01 04:08:04;;;;;;;3.77;2.30;;;;;;;6.66;71.23;94559.09;5009140;28;20205;-88
2024/01/01 04:10:31;;;;;;;5.60;2.43;;;;;;;6.65;71.10;94561.81;4997636;28;20219;-89
2024/01/01 04:12:59;;;;;;;3.67;2.20;;;;;;;6.48;71.47;94564.56;5007933;28;20291;-89
2024/01/01 04:15:26;;;;;;;3.07;2.00;;;;;;;6.51;71.50;94578.75;5007990;28;20700;-88
2024/01/01 04:18:03;;;;;;;3.17;2.10;;;;;;;6.41;71.66;94594.34;5004913;28;20223;-88
2024/01/01 04:20:29;;;;;;;4.20;2.20;;;;;;;6.40;71.53;94597.88;5009333;28;20222;-89
2024/01/01 04:22:59;;;;;;;2.40;1.80;;;;;;;6.41;71.66;94609.69;5022223;28;20230;-88
2024/01/01 04:25:25;;;;;;;3.47;2.17;;;;;;;6.36;71.46;94608.59;5008000;28;20286;-88
2024/01/01 04:27:59;;;;;;;2.93;1.90;;;;;;;6.38;71.58;94601.56;5008284;28;20187;-88
2024/01/01 04:30:25;;;;;;;4.53;1.93;;;;;;;6.26;71.40;94588.44;5006937;28;20225;-88
2024/01/01 04:32:52;;;;;;;2.33;1.80;;;;;;;6.21;71.36;94606.03;5003898;28;20230;-89
2024/01/01 04:35:18;;;;;;;2.10;1.80;;;;;;;6.26;71.58;94608.88;4993439;28;20253;-88
2024/01/01 04:37:45;;;;;;;6.13;2.20;;;;;;;6.32;71.33;94602.28;5027404;28;20198;-88
2024/01/01 04:40:23;;;;;;;2.80;1.93;;;;;;;6.37;71.03;94607.66;5030844;28;20792;-88
2024/01/01 04:42:50;;;;;;;2.47;1.70;;;;;;;6.30;70.85;94596.53;5013120;28;20826;-88
2024/01/01 04:45:17;;;;;;;2.93;1.80;;;;;;;6.22;70.64;94592.28;5003986;28;20236;-88
2024/01/01 04:47:43;;;;;;;2.30;1.50;;;;;;;6.32;70.82;94599.72;4992127;28;20250;-88
2024/01/01 04:50:13;;;;;;;3.00;1.67;;;;;;;6.35;70.50;94599.38;4991727;28;20634;-88
2024/01/01 04:52:58;;;;;;;2.97;1.90;;;;;;;6.37;70.42;94598.22;5011299;28;20222;-89
2024/01/01 04:55:26;;;;;;;1.87;1.40;;;;;;;6.40;70.49;94608.09;5014525;28;20195;-88
2024/01/01 04:57:53;;;;;;;2.60;1.60;;;;;;;6.36;70.18;94601.75;5011587;28;20209;-88
2024/01/01 05:00:27;;;;;;;3.30;1.70;;;;;;;6.42;70.46;94598.50;5010647;28;20233;-88
2024/01/01 05:02:56;;;;;;;3.17;1.83;;;;;;;6.49;70.13;94594.28;5010806;28;20680;-88
2024/01/01 05:05:22;;;;;;;2.33;1.87;;;;;;;6.59;69.90;94587.13;5003631;28;20222;-88
2024/01/01 05:07:49;;;;;;;3.70;1.70;;;;;;;6.64;69.95;94576.38;4994653;28;20223;-89
2024/01/01 05:10:15;;;;;;;2.67;1.50;;;;;;;6.64;69.58;94573.03;5028577;28;20230;-89
2024/01/01 05:12:55;;;;;;;1.67;1.50;;;;;;;6.61;69.72;94570.81;4995338;28;20234;-88
2024/01/01 05:15:24;;;;;;;2.30;1.63;;;;;;;6.59;69.50;94571.78;4991725;28;20194;-88
2024/01/01 05:17:51;;;;;;;2.30;1.80;;;;;;;6.59;69.36;94570.97;4991417;28;20212;-88
2024/01/01 05:20:17;;;;;;;1.70;1.40;;;;;;;6.56;69.45;94572.13;4991227;28;20255;-88
2024/01/01 05:23:05;;;;;;;5.23;1.80;;;;;;;6.49;69.34;94578.13;4991222;28;20203;-89
2024/01/01 05:25:31;;;;;;;1.80;1.40;;;;;;;6.43;69.45;94576.28;5018314;28;20198;-88
2024/01/01 05:27:59;;;;;;;2.20;1.40;;;;;;;6.35;69.71;94576.38;5030376;28;20699;-88
2024/01/01 05:30:34;;;;;;;2.37;1.40;;;;;;;6.36;69.68;94578.72;5029015;28;20222;-88
2024/01/01 05:33:01;;;;;;;1.87;1.60;;;;;;;6.46;69.40;94592.06;5010017;28;20264;-88
2024/01/01 05:35:27;;;;;;;1.77;1.43;;;;;;;6.45;69.55;94590.47;4999790;28;20202;-88
2024/01/01 05:37:54;;;;;;;1.90;1.43;;;;;;;6.43;69.49;94596.72;4991218;28;20311;-88
2024/01/01 05:40:21;;;;;;;1.57;1.30;;;;;;;6.44;69.61;94577.88;4998034;28;20305;-88
2024/01/01 05:42:49;;;;;;;1.43;1.30;;;;;;;6.50;69.83;94613.75;5030767;28;20199;-88
2024/01/01 05:45:21;;;;;;;2.33;1.33;;;;;;;6.60;69.85;94613.50;5022991;28;20187;-88
2024/01/01 05:47:48;;;;;;;2.53;1.23;;;;;;;6.61;69.78;94625.31;5010583;28;20198;-88
2024/01/01 05:50:14;;;;;;;2.37;1.40;;;;;;;6.49;70.51;94654.84;5009576;28;20227;-88
2024/01/01 05:52:41;;;;;;;2.17;1.67;;;;;;;6.47;70.62;94662.69;5005706;28;20234;-89
2024/01/01 05:55:10;;;;;;;2.40;1.40;;;;;;;6.43;70.91;94673.44;5005989;28;20190;-88
2024/01/01 05:57:47;;;;;;;1.60;1.17;;;;;;;6.46;71.04;94683.31;5016331;28;20305;-88
2024/01/01 06:00:15;;;;;;;2.03;1.30;;;;;;;6.52;70.79;94692.84;5011206;28;20310;-88
2024/01/01 06:02:43;;;;;;;1.77;1.40;;;;;;;6.56;71.02;94705.09;5010511;28;20285;-88
2024/01/01 06:05:25;;;;;;;2.13;1.57;;;;;;;6.55;71.07;94716.28;5005343;28;20199;-88
2024/01/01 06:07:52;;;;;;;1.60;1.50;;;;;;;6.52;71.22;94721.78;4997211;28;20300;-88
2024/01/01 06:10:18;;;;;;;3.67;1.80;;;;;;;6.57;71.19;94737.38;5009553;28;20225;-88
2024/01/01 06:12:45;;;;;;;5.47;1.63;;;;;;;6.61;71.03;94739.59;5013416;28;20204;-89
2024/01/01 06:15:16;;;;;;;1.80;1.60;;;;;;;6.60;71.60;94756.69;5023086;28;20203;-88
2024/01/01 06:17:57;;;;;;;2.67;1.60;;;;;;;6.48;71.96;94774.22;5009911;28;20649;-88
2024/01/01 06:20:26;;;;;;;2.07;1.50;;;;;;;6.46;72.82;94800.94;5008651;28;20301;-89
2024/01/01 06:23:15;;;;;;;1.70;1.50;;;;;;;6.58;72.37;94789.31;5009611;28;20199;-89
2024/01/01 06:25:44;;;;;;;1.40;1.30;;;;;;;6.56;72.21;94806.59;5008932;28;20219;-89
2024/01/01 06:28:10;;;;;;;1.73;1.37;;;;;;;6.52;72.73;94805.38;5008492;28;20301;-88
2024/01/01 06:30:50;;;;;;;1.60;1.50;;;;;;;6.53;72.62;94812.88;5026936;28;20276;-89
2024/01/01 06:33:31;;;;;;;;;;;;;;;;;;;;;
2024/01/01 06:36:11;;;;;;;2.70;1.50;;;;;;;6.50;73.18;94822.63;4992516;28;20195;-89
2024/01/01 06:38:37;;;;;;;2.20;1.63;;;;;;;6.49;73.12;94810.81;4996227;28;20278;-89
2024/01/01 06:41:04;;;;;;;2.37;1.40;;;;;;;6.38;73.26;94816.31;4995966;28;20199;-89
2024/01/01 06:43:50;;;;;;;1.73;1.30;;;;;;;6.39;73.20;94825.56;4989389;28;20677;-89
2024/01/01 06:46:16;;;;;;;2.63;1.50;;;;;;;6.52;73.29;94841.97;5012384;28;20569;-89
2024/01/01 06:48:44;;;;;;;1.93;1.40;;;;;;;6.48;72.91;94838.16;5011216;28;20299;-89
2024/01/01 06:51:14;;;;;;;1.57;1.40;;;;;;;6.46;72.93;94837.50;4989526;28;20230;-89
2024/01/01 06:53:56;;;;;;;1.93;1.47;;;;;;;6.48;72.91;94840.69;5002789;28;20230;-89
2024/01/01 06:56:22;;;;;;;4.13;1.50;;;;;;;6.46;72.91;94834.16;5008072;28;20273;-88
2024/01/01 06:58:52;;;;;;;1.40;1.30;;;;;;;6.50;72.76;94843.09;5009021;28;20286;-89
2024/01/01 07:01:19;;;;;;;1.77;1.40;;;;;;;6.56;72.63;94843.19;5010016;28;20550;-89
2024/01/01 07:04:04;;;;;;;1.60;1.30;;;;;;;6.51;72.50;94832.69;5018617;28;20202;-89
2024/01/01 07:06:34;;;;;;;2.23;1.60;;;;;;;6.54;72.42;94837.44;5007320;28;20213;-89
2024/01/01 07:09:12;;;;;;;3.63;1.37;;;;;;;6.49;72.13;94833.81;5007896;28;20972;-89
2024/01/01 07:11:39;;;;;;;2.33;1.40;;;;;;;6.57;71.91;94843.97;5001957;28;20257;-90
2024/01/01 07:14:06;;;;;;;1.67;1.13;;;;;;;6.58;72.25;94848.94;4992333;28;20253;-88
2024/01/01 07:16:35;;;;;;;2.40;1.40;;;;;;;6.59;72.00;94845.41;5007546;28;20738;-89
2024/01/01 07:19:02;;;;;;;2.60;1.40;;;;;;;6.58;72.05;94855.81;5009040;28;20706;-86
2024/01/01 07:21:35;;;;;;;1.73;1.47;;;;;;;6.64;72.69;94887.59;5010463;28;20289;-85
2024/01/01 07:24:01;;;;;;;2.63;1.50;;;;;;;6.69;72.44;94863.09;5021931;28;20202;-86
2024/01/01 07:26:28;;;;;;;3.03;1.33;;;;;;;6.74;72.05;94850.56;5015901;28;20696;-85
2024/01/01 07:28:54;;;;;;;1.70;1.27;;;;;;;6.56;71.99;94834.72;5018492;28;20203;-86
2024/01/01 07:31:21;;;;;;;4.80;2.20;;;;;;;7.16;86.54;95217.91;5020059;28;20203;-82
2024/01/01 07:33:48;;;;;;;3.63;1.93;;;;;;;7.63;80.33;95080.38;5021927;28;20198;-83
2024/01/01 07:36:14;;;;;;;3.10;1.57;;;;;;;7.97;76.57;94980.00;5022696;28;20405;-82
2024/01/01 07:38:43;;;;;;;2.07;1.33;;;;;;;8.28;73.94;94907.22;5022170;28;20229;-83
2024/01/01 07:41:13;;;;;;;2.13;1.30;;;;;;;8.14;67.78;94657.56;5015706;28;20199;-88
2024/01/01 07:43:42;;;;;;;4.17;1.50;;;;;;;7.83;67.24;94604.09;5016552;28;20859;-88
2024/01/01 07:46:10;;;;;;;1.80;1.43;;;;;;;7.56;68.16;94618.41;5016795;28;20199;-88
2024/01/01 07:48:51;;;;;;;2.30;1.40;;;;;;;7.34;68.66;94650.06;5018813;28;20226;-88
2024/01/01 07:51:18;;;;;;;2.73;1.40;;;;;;;7.14;69.15;94670.28;5012291;28;20218;-88
2024/01/01 07:57:06;;;;;;;3.53;1.50;;;;;;;7.26;69.14;94684.25;5012939;28;20262;-89
2024/01/01 08:02:21;;;;;;;3.37;1.60;;;;;;;7.30;69.48;94696.69;4984874;28;20269;-89
2024/01/01 08:04:47;;;;;;;3.37;1.53;;;;;;;7.40;68.63;94686.97;5013563;28;20237;-89
2024/01/01 08:07:14;;;;;;;1.87;1.30;;;;;;;7.45;68.53;94672.66;5021592;28;20230;-89
2024/01/01 08:09:42;;;;;;;2.60;1.70;;;;;;;7.54;68.05;94665.66;5020388;28;20213;-89
2024/01/01 08:12:32;;;;;;;3.43;2.07;;;;;;;7.58;67.77;94649.75;5009210;28;20294;-88
2024/01/01 08:14:59;;;;;;;2.80;1.23;;;;;;;7.69;67.40;94634.91;4993127;28;20234;-90
2024/01/01 08:17:25;;;;;;;2.10;1.30;;;;;;;7.61;67.27;94631.47;4995753;28;20257;-87
2024/01/01 08:20:08;;;;;;;4.47;1.30;;;;;;;7.93;66.94;94626.81;5011735;28;20226;-88
2024/01/01 08:22:35;;;;;;;3.37;1.60;;;;;;;8.20;65.94;94589.41;5010851;28;20253;-90
2024/01/01 08:25:03;;;;;;;2.80;1.50;;;;;;;8.40;64.85;94551.09;5011217;28;20202;-88
2024/01/01 08:27:47;;;;;;;3.73;1.57;;;;;;;8.41;64.18;94506.53;5031675;28;20205;-89
2024/01/01 08:30:17;;;;;;;2.10;1.40;;;;;;;8.58;63.83;94505.22;5017048;28;20709;-89
2024/01/01 08:33:04;;;;;;;2.83;1.50;;;;;;;8.79;63.21;94478.66;5011262;28;20207;-89
2024/01/01 08:35:43;;;;;;;3.07;1.70;;;;;;;8.84;62.04;94425.00;5001878;28;20210;-89
2024/01/01 08:38:22;;;;;;;3.77;1.60;;;;;;;8.96;62.33;94421.66;4992376;28;20380;-90
2024/01/01 08:40:58;;;;;;;3.33;1.50;;;;;;;9.10;61.50;94399.34;5009020;28;20235;-88
2024/01/01 08:46:08;;;;;;;2.83;1.57;;;;;;;9.49;59.71;94305.28;5002995;28;20575;-87
2024/01/01 08:48:34;;;;;;;2.27;1.47;;;;;;;9.61;59.72;94306.25;5009233;28;20188;-88
2024/01/01 08:51:02;;;;;;;3.43;1.57;;;;;;;9.39;59.59;94286.94;5011581;28;20269;-88
2024/01/01 08:53:42;;;;;;;2.37;1.57;;;;;;;9.47;59.63;94296.97;5011481;28;20233;-88
2024/01/01 08:56:11;;;;;;;2.83;1.63;;;;;;;9.54;59.19;94279.78;5011670;28;20199;-88
2024/01/01 08:58:37;;;;;;;3.10;1.43;;;;;;;9.60;58.69;94255.88;5025268;28;20222;-88
2024/01/01 09:01:06;;;;;;;2.23;1.37;;;;;;;9.54;58.36;94241.25;5030751;28;20240;-88
2024/01/01 09:03:44;;;;;;;3.10;1.70;;;;;;;9.53;59.08;94281.56;5031769;28;20208;-86
2024/01/01 09:06:11;;;;;;;4.63;1.77;;;;;;;9.49;59.40;94285.53;5032007;28;20202;-88
2024/01/01 09:08:37;;;;;;;3.50;1.73;;;;;;;9.60;58.72;94276.41;5031566;28;20206;-88
2024/01/01 09:11:08;;;;;;;1.43;1.30;;;;;;;9.59;58.49;94256.84;5022235;28;20218;-88
2024/01/01 09:13:48;;;;;;;2.13;1.40;;;;;;;9.67;58.38;94259.97;5010305;28;20207;-88
2024/01/01 09:16:14;;;;;;;2.20;1.30;;;;;;;9.68;58.47;94258.19;5014581;28;20240;-87
2024/01/01 09:18:42;;;;;;;2.10;1.40;;;;;;;9.84;58.29;94252.59;5031318;28;20240;-88
2024/01/01 09:24:12;;;;;;;1.67;1.23;;;;;;;10.14;57.16;94223.78;5029740;28;20227;-87
2024/01/01 09:27:20;;;;;;;1.10;1.00;;;;;;;10.07;57.01;94205.00;5031398;28;20221;-87
2024/01/01 09:29:48;;;;;;;2.10;1.20;;;;;;;10.30;57.30;94215.59;5027554;28;20709;-87
2024/01/01 09:32:17;;;;;;;4.10;1.50;;;;;;;10.39;56.55;94188.63;5030728;28;20210;-87
2024/01/01 09:34:50;;;;;;;1.60;1.23;;;;;;;10.16;56.64;94181.44;5029627;28;20237;-87
2024/01/01 09:37:26;;;;;;;3.83;1.30;;;;;;;10.28;56.88;94204.72;5030848;28;20236;-87
2024/01/01 09:39:56;;;;;;;3.80;1.40;;;;;;;10.44;56.51;94201.63;5030715;28;20228;-87
2024/01/01 09:42:22;;;;;;;2.17;1.30;;;;;;;10.46;56.32;94183.41;5016615;28;20226;-88
2024/01/01 09:45:00;;;;;;;;;;;;;;;;;;;;;
2024/01/01 09:47:30;;;;;;;2.37;1.17;;;;;;;10.87;55.71;94178.50;5019752;28;20206;-87
2024/01/01 09:49:57;;;;;;;2.40;1.10;;;;;;;10.77;54.71;94118.22;5017770;28;20801;-87
2024/01/01 09:52:27;;;;;;;2.00;1.20;;;;;;;10.87;55.29;94160.47;5010604;28;20306;-87
2024/01/01 09:54:54;;;;;;;1.40;1.17;;;;;;;10.99;54.73;94115.00;5010899;28;20203;-87
2024/01/01 10:00:26;;;;;;;2.07;1.20;;;;;;;10.81;54.29;94094.38;5194711;22;20226;-88
2024/01/01 10:03:07;;;;;;;1.60;1.10;;;;;;;10.23;54.83;94106.81;5028236;28;20226;-88
2024/01/01 10:08:47;;;;;;;2.00;1.10;;;;;;;9.59;56.78;94178.00;5031804;28;20201;-89
2024/01/01 10:11:20;;;;;;;4.37;1.07;;;;;;;9.56;56.81;94219.50;5022829;28;20191;-87
2024/01/01 10:16:38;;;;;;;2.77;1.27;;;;;;;9.29;57.79;94266.78;5033281;28;20698;-88
2024/01/01 10:19:20;;;;;;;2.27;1.30;;;;;;;9.17;58.07;94294.09;5016532;28;20230;-88
2024/01/01 10:21:46;;;;;;;2.27;1.10;;;;;;;9.12;58.59;94306.72;5016275;28;20290;-88
2024/01/01 10:24:22;;;;;;;2.00;1.00;;;;;;;8.88;59.02;94319.16;5033411;28;20257;-87
2024/01/01 10:27:08;;;;;;;3.00;1.30;;;;;;;8.93;59.27;94360.44;5020120;28;20213;-88
2024/01/01 10:29:37;;;;;;;2.57;1.40;;;;;;;8.79;59.27;94355.47;5016799;28;20315;-87
2024/01/01 10:32:23;;;;;;;1.60;1.00;;;;;;;8.75;60.12;94388.44;5028788;28;20194;-89
2024/01/01 10:34:55;;;;;;;3.73;1.13;;;;;;;8.68;60.09;94385.06;5028730;28;20211;-88
2024/01/01 10:37:30;;;;;;;4.97;1.53;;;;;;;8.76;60.80;94430.28;5024968;28;20219;-86
2024/01/01 10:40:05;;;;;;;6.97;1.50;;;;;;;8.82;61.03;94445.72;5011361;28;20218;-86
2024/01/01 10:42:42;;;;;;;5.77;1.10;;;;;;;8.81;60.02;94392.81;4996534;28;20206;-87
2024/01/01 10:45:18;;;;;;;4.10;1.47;;;;;;;8.81;60.00;94412.53;5010036;28;20326;-87
2024/01/01 10:51:11;;;;;;;1.80;0.80;;;;;;;8.23;62.05;94507.78;4989403;28;20724;-90
2024/01/01 10:53:55;;;;;;;3.27;1.10;;;;;;;8.15;64.05;94600.19;5009480;28;20234;-88
2024/01/01 10:56:40;;;;;;;4.40;1.37;;;;;;;7.95;65.60;94651.28;5010472;28;20195;-88
2024/01/01 11:02:34;;;;;;;2.03;1.10;;;;;;;8.00;66.58;94716.59;5017656;28;20207;-88
2024/01/01 11:05:31;;;;;;;2.70;1.03;;;;;;;7.85;67.09;94730.25;5010819;28;20201;-88
2024/01/01 11:08:01;;;;;;;2.50;1.00;;;;;;;7.95;67.30;94729.94;5006792;28;20199;-89
2024/01/01 11:10:45;;;;;;;1.93;0.80;;;;;;;7.85;67.41;94743.06;5009433;28;20268;-88
2024/01/01 11:13:56;;;;;;;2.90;1.00;;;;;;;7.85;67.91;94758.44;5007724;28;20202;-88
2024/01/01 11:16:46;;;;;;;2.30;1.00;;;;;;;7.86;67.01;94731.06;4983875;28;20294;-88
2024/01/01 11:19:41;;;;;;;1.90;1.10;;;;;;;8.36;66.04;94701.19;5010515;28;20251;-88
2024/01/01 11:22:31;;;;;;;2.97;1.03;;;;;;;8.62;64.71;94656.03;5007645;28;20199;-87
2024/01/01 11:25:08;;;;;;;1.20;0.90;;;;;;;8.84;64.15;94623.41;5008552;28;20206;-88
2024/01/01 11:27:47;;;;;;;1.83;1.00;;;;;;;8.79;62.76;94576.97;5028304;28;20209;-87
2024/01/01 11:30:16;;;;;;;2.13;1.00;;;;;;;8.82;63.25;94566.34;5008914;28;20223;-87
2024/01/01 11:32:42;;;;;;;1.00;0.73;;;;;;;8.79;63.19;94576.97;5009713;28;20611;-86
2024/01/01 11:35:13;;;;;;;1.73;0.90;;;;;;;8.93;63.18;94568.34;5008118;28;20789;-87
2024/01/01 11:37:46;;;;;;;2.10;0.97;;;;;;;9.08;62.60;94547.66;5010560;28;20238;-87
2024/01/01 11:40:13;;;;;;;1.53;0.87;;;;;;;9.06;62.52;94541.91;4997210;28;20223;-86
2024/01/01 11:42:40;;;;;;;1.33;1.00;;;;;;;9.34;62.02;94534.09;5009307;28;20286;-86
2024/01/01 11:45:07;;;;;;;2.67;1.40;;;;;;;9.37;61.79;94513.19;5009362;28;20198;-86
2024/01/01 11:47:34;;;;;;;3.90;1.20;;;;;;;9.53;61.42;94492.25;5023404;28;20209;-86
2024/01/01 11:50:01;;;;;;;2.07;1.43;;;;;;;9.70;61.10;94472.88;5027817;28;20229;-87
2024/01/01 11:52:29;;;;;;;1.43;0.97;;;;;;;9.87;60.13;94446.75;5029968;28;20788;-86
2024/01/01 11:54:56;;;;;;;0.83;0.83;;;;;;;9.82;59.60;94402.88;5016957;28;20237;-86
2024/01/01 11:57:25;;;;;;;2.93;1.50;;;;;;;9.91;59.85;94402.47;5007721;28;20201;-86
2024/01/01 11:59:51;;;;;;;2.97;1.30;;;;;;;9.97;59.40;94377.75;5029068;28;20237;-86
2024/01/01 12:02:19;;;;;;;2.13;1.20;;;;;;;9.92;59.18;94377.53;5029797;28;20214;-86
2024/01/01 12:04:46;;;;;;;3.67;1.60;;;;;;;10.01;59.28;94371.19;5016764;28;20199;-87
2024/01/01 12:07:29;;;;;;;3.27;1.50;;;;;;;10.25;58.64;94367.97;5008673;28;20191;-87
2024/01/01 12:10:09;;;;;;;2.67;1.50;;;;;;;10.05;58.11;94331.22;5006945;28;20253;-87
2024/01/01 12:12:40;;;;;;;1.97;1.27;;;;;;;10.11;58.26;94327.84;5007230;28;20203;-87
2024/01/01 12:15:10;;;;;;;3.33;1.13;;;;;;;10.26;58.12;94346.41;5024043;28;20202;-87
2024/01/01 12:17:44;;;;;;;2.67;1.20;;;;;;;10.15;57.73;94313.59;5028508;28;20579;-88
2024/01/01 12:20:20;;;;;;;2.80;1.20;;;;;;;10.38;57.73;94319.03;5027963;28;20288;-88
2024/01/01 12:22:48;;;;;;;3.30;1.40;;;;;;;10.03;58.01;94300.56;5028400;28;20621;-87
2024/01/01 12:25:20;;;;;;;3.23;1.20;;;;;;;9.83;59.14;94383.88;5026246;28;20594;-89
2024/01/01 12:28:04;;;;;;;4.73;1.67;;;;;;;9.52;59.44;94381.97;5014428;28;20207;-89
2024/01/01 12:30:38;;;;;;;3.93;1.87;;;;;;;9.31;60.16;94408.63;5008363;28;20223;-88
2024/01/01 12:33:18;;;;;;;2.60;1.57;;;;;;;9.13;60.52;94446.94;5015387;28;20285;-88